Aérodrome :
LOGIN :

S'inscrire | Disclaimer

   EN    FR    IT 

 










Légende :    VFR   VFR Marginal   IFR   IFR Intensif   IFR Très Intensif
Visi : 
Plafond : 
>= 8 km
>= 3000ft
5 à 8 km
1000 à 3000 ft
1500m à 5 km
500 à 1000 ft
800 à 1500m
200 à 500 ft
< 800m
< 200 ft
Symboles :   Orages  Brouillard  Fortes neiges  Fortes précipitations  Vent > 20 kt
SIGMETs :   Divers  Orages  Givrage  Turbulence  Onde Orograph.  Cendres Volcan.







- Altitude de l'aérodrome : 157 ft
- Code IATA : SXF


EDDB - Berlin Schönefeld

DERNIER METAR :
  • 231620Z 23004KT 9999 BKN045 11/10 Q1017 NOSIG

METARs EXPIRÉS :
  • 231550Z 24005KT 9999 BKN045 10/09 Q1017 NOSIG
  • 231520Z 25007KT 9999 FEW010 BKN030 11/10 Q1016 NOSIG
  • 231450Z 26008KT 9999 BKN012 12/10 Q1016 BECMG BKN015
  • 231420Z 26006KT 9999 FEW006 BKN010 11/10 Q1016 BECMG BKN015
  • 231350Z 25005KT 9000 FEW006 BKN008 11/10 Q1016 BECMG BKN015

TAF TAF EDDB
Valide du 23 à 12h jusqu'au 24 à 12h UTC


231100Z 2312/2412 25008KT 6000 BKN008
TEMPO 2312/2316 4000 -DZRA
BECMG 2315/2317 19004KT BKN015
TEMPO 2317/2324 BKN010
BECMG 2400/2403 BKN008
TEMPO 2402/2410 2000 BR BKN004
Pas de NOTAMs connus pour ce terrain.



MET'MAP, la Météo Aéronautique d'un coup d'oeil ! - Copyright ORBIFLY Décembre 2007 - Disclaimer

ORBIFLY MET'MAP TEAM :

Programmation & Développement : Alexandra Zaïnal
Conception & Développement : Baudouin d'Aumeries
Co-Programmation & Développement : Marc-Olivier Méhu
Soutien technique & logistique : Manuel Goepfert

Contact : metmap@orbifly.com




SOURCES & CREDITS :

   NOAA